createdAt,value
2022-11-05T00:02:31.510Z,100436.66
2022-11-05T00:05:17.012Z,100437.56
2022-11-05T00:08:08.948Z,100452.56
2022-11-05T00:10:39.152Z,100449.91
2022-11-05T00:13:27.129Z,100453.41
2022-11-05T00:16:12.568Z,100472.84
2022-11-05T00:18:40.472Z,100463.13
2022-11-05T00:21:29.035Z,100471.03
2022-11-05T00:24:17.248Z,100467.53
2022-11-05T00:26:46.939Z,100481.63
2022-11-05T00:29:16.500Z,100472.78
2022-11-05T00:31:44.295Z,100481.63
2022-11-05T00:34:12.073Z,100490.41
2022-11-05T00:36:39.832Z,100489.53
2022-11-05T00:39:07.563Z,100498.34
2022-11-05T00:41:35.319Z,100494.78
2022-11-05T00:44:29.187Z,100499.19
2022-11-05T00:47:12.156Z,100506.25
2022-11-05T00:49:39.957Z,100508.88
2022-11-05T00:52:21.588Z,100510.66
2022-11-05T00:54:49.337Z,100507.13
2022-11-05T00:57:17.082Z,100515.94
2022-11-05T00:59:44.957Z,100519.44
2022-11-05T01:02:14.121Z,100518.56
2022-11-05T01:04:42.026Z,100518.53
2022-11-05T01:07:09.760Z,100524.72
2022-11-05T01:09:37.576Z,100522.91
2022-11-05T01:12:05.473Z,100521.16
2022-11-05T01:14:33.303Z,100526.44
2022-11-05T01:17:01.049Z,100536.13
2022-11-05T01:19:30.375Z,100534.31
2022-11-05T01:21:58.098Z,100538.72
2022-11-05T01:24:25.933Z,100545.75
2022-11-05T01:26:53.635Z,100542.22
2022-11-05T01:29:21.526Z,100545.69
2022-11-05T01:31:49.270Z,100541.28
2022-11-05T01:34:17.037Z,100546.53
2022-11-05T01:36:46.132Z,100546.50
2022-11-05T01:39:14.235Z,100541.22
2022-11-05T01:41:42.073Z,100548.22
2022-11-05T01:44:43.274Z,100542.88
2022-11-05T01:47:27.148Z,100552.53
2022-11-05T01:49:55.518Z,100554.25
2022-11-05T01:52:25.572Z,100552.47
2022-11-05T01:54:54.024Z,100551.53
2022-11-05T01:57:22.320Z,100553.28
2022-11-05T01:59:53.808Z,100558.53
2022-11-05T02:02:22.233Z,100565.53
2022-11-05T02:04:54.501Z,100565.53
2022-11-05T02:07:24.575Z,100574.28
2022-11-05T02:10:02.268Z,100562.81
2022-11-05T02:12:31.361Z,100568.97
2022-11-05T02:14:59.323Z,100569.78
2022-11-05T02:17:38.330Z,100568.00
2022-11-05T02:20:27.920Z,100572.38
2022-11-05T02:23:38.022Z,100569.69
2022-11-05T02:26:46.521Z,100586.38
2022-11-05T02:29:41.474Z,100579.31
2022-11-05T02:32:19.177Z,100584.56
2022-11-05T02:34:52.647Z,100579.25
2022-11-05T02:37:30.969Z,100577.50
2022-11-05T02:40:11.645Z,100578.34
2022-11-05T02:42:46.319Z,100586.22
2022-11-05T02:45:26.769Z,100583.56
2022-11-05T02:48:04.833Z,100593.22
2022-11-05T02:50:38.294Z,100593.22
2022-11-05T02:53:12.494Z,100592.31
2022-11-05T02:55:46.188Z,100594.06
2022-11-05T02:58:14.129Z,100599.28
2022-11-05T03:00:50.289Z,100598.41
2022-11-05T03:03:30.423Z,100597.47
2022-11-05T03:06:27.215Z,100611.50
2022-11-05T03:09:17.289Z,100607.06
2022-11-05T03:11:55.591Z,100608.78
2022-11-05T03:14:30.440Z,100619.31
2022-11-05T03:17:08.472Z,100614.94
2022-11-05T03:19:45.517Z,100614.00
2022-11-05T03:22:17.360Z,100617.47
2022-11-05T03:24:48.736Z,100623.66
2022-11-05T03:27:20.546Z,100620.97
2022-11-05T03:29:52.307Z,100629.69
2022-11-05T03:32:22.528Z,100629.66
2022-11-05T03:34:57.809Z,100631.38
2022-11-05T03:37:28.511Z,100620.81
2022-11-05T03:40:00.443Z,100626.91
2022-11-05T03:42:33.780Z,100621.56
2022-11-05T03:45:06.910Z,100624.19
2022-11-05T03:47:41.884Z,100629.44
2022-11-05T03:50:18.726Z,100634.72
2022-11-05T03:52:52.406Z,100640.84
2022-11-05T03:55:24.827Z,100641.72
2022-11-05T03:57:56.675Z,100644.31
2022-11-05T04:00:24.960Z,100654.81
2022-11-05T04:02:52.879Z,100648.66
2022-11-05T04:05:22.194Z,100653.00
2022-11-05T04:08:12.922Z,100653.78
2022-11-05T04:10:59.467Z,100662.53
2022-11-05T04:13:27.874Z,100663.34
2022-11-05T04:16:15.074Z,100670.31
2022-11-05T04:18:43.547Z,100675.53
2022-11-05T04:21:32.839Z,100680.72
2022-11-05T04:24:09.858Z,100687.72
2022-11-05T04:26:39.019Z,100690.28
2022-11-05T04:29:24.170Z,100689.38
2022-11-05T04:31:52.104Z,100687.56
2022-11-05T04:34:22.057Z,100692.84
2022-11-05T04:36:51.903Z,100695.44
2022-11-05T04:39:20.676Z,100698.88
2022-11-05T04:41:48.962Z,100699.75
2022-11-05T04:44:17.016Z,100691.81
2022-11-05T04:46:44.918Z,100689.16
2022-11-05T04:49:12.703Z,100692.66
2022-11-05T04:51:40.425Z,100679.41
2022-11-05T04:54:09.507Z,100695.16
2022-11-05T04:56:37.226Z,100699.53
2022-11-05T04:59:04.946Z,100701.25
2022-11-05T05:01:32.808Z,100699.41
2022-11-05T05:04:00.667Z,100709.00
2022-11-05T05:06:28.507Z,100710.72
2022-11-05T05:08:56.309Z,100707.09
2022-11-05T05:11:25.377Z,100709.59
2022-11-05T05:13:53.094Z,100716.50
2022-11-05T05:16:22.405Z,100711.19
2022-11-05T05:18:50.811Z,100721.63
2022-11-05T05:21:37.606Z,100723.28
2022-11-05T05:24:06.091Z,100719.72
2022-11-05T05:26:35.302Z,100727.59
2022-11-05T05:29:03.081Z,100729.19
2022-11-05T05:31:30.810Z,100736.09
2022-11-05T05:33:58.772Z,100740.44
2022-11-05T05:36:26.528Z,100744.75
2022-11-05T05:38:54.385Z,100748.09
2022-11-05T05:41:22.657Z,100748.91
2022-11-05T05:43:51.867Z,100746.16
2022-11-05T05:46:20.286Z,100765.38
2022-11-05T05:48:50.940Z,100755.63
2022-11-05T05:51:19.938Z,100765.19
2022-11-05T05:53:47.663Z,100760.69
2022-11-05T05:56:19.124Z,100766.75
2022-11-05T05:58:47.310Z,100768.41
2022-11-05T06:01:19.673Z,100759.63
2022-11-05T06:03:48.795Z,100763.97
2022-11-05T06:06:20.842Z,100761.25
2022-11-05T06:08:48.957Z,100760.31
2022-11-05T06:11:16.965Z,100766.44
2022-11-05T06:13:44.780Z,100771.69
2022-11-05T06:16:12.620Z,100771.69
2022-11-05T06:18:41.725Z,100780.50
2022-11-05T06:21:11.325Z,100785.75
2022-11-05T06:23:41.087Z,100786.63
2022-11-05T06:26:11.655Z,100776.97
2022-11-05T06:28:39.673Z,100781.41
2022-11-05T06:31:07.342Z,100784.88
2022-11-05T06:33:35.226Z,100793.69
2022-11-05T06:36:05.866Z,100794.56
2022-11-05T06:38:35.264Z,100793.69
2022-11-05T06:41:09.784Z,100791.00
2022-11-05T06:43:38.062Z,100797.09
2022-11-05T06:46:06.326Z,100802.28
2022-11-05T06:48:34.187Z,100806.66
2022-11-05T06:51:02.102Z,100816.31
2022-11-05T06:53:32.324Z,100816.31
2022-11-05T06:56:03.600Z,100821.56
2022-11-05T06:58:32.089Z,100822.41
2022-11-05T07:01:03.464Z,100829.50
2022-11-05T07:03:31.693Z,100833.03
2022-11-05T07:06:00.923Z,100833.97
2022-11-05T07:08:31.129Z,100835.75
2022-11-05T07:11:00.735Z,100844.56
2022-11-05T07:13:28.769Z,100843.72
2022-11-05T07:15:56.980Z,100855.22
2022-11-05T07:18:25.361Z,100850.91
2022-11-05T07:20:53.088Z,100853.63
2022-11-05T07:23:20.831Z,100855.50
2022-11-05T07:25:48.511Z,100861.72
2022-11-05T07:28:17.622Z,100855.75
2022-11-05T07:30:45.394Z,100860.28
2022-11-05T07:33:13.623Z,100869.22
2022-11-05T07:35:41.753Z,100870.25
2022-11-05T07:38:09.609Z,100869.50
2022-11-05T07:40:37.410Z,100877.56
2022-11-05T07:43:05.171Z,100880.31
2022-11-05T07:45:34.268Z,100885.69
2022-11-05T07:48:04.832Z,100884.97
2022-11-05T07:50:34.829Z,100880.69
2022-11-05T07:53:03.380Z,100888.66
2022-11-05T07:55:31.874Z,100897.63
2022-11-05T07:57:59.798Z,100895.97
2022-11-05T08:00:29.040Z,100888.19
2022-11-05T08:03:05.789Z,100899.78
2022-11-05T08:05:37.632Z,100894.66
2022-11-05T08:08:07.271Z,100900.09
2022-11-05T08:10:35.567Z,100910.78
2022-11-05T08:13:03.709Z,100910.03
2022-11-05T08:15:31.563Z,100911.97
2022-11-05T08:18:01.166Z,100901.59
2022-11-05T08:20:29.293Z,100905.34
2022-11-05T08:22:57.694Z,100897.53
2022-11-05T08:25:25.737Z,100913.53
2022-11-05T08:27:57.533Z,100917.19
2022-11-05T08:30:25.623Z,100914.78
2022-11-05T08:32:57.856Z,100927.34
2022-11-05T08:35:27.606Z,100925.75
2022-11-05T08:37:57.994Z,100929.50
2022-11-05T08:40:26.309Z,100926.19
2022-11-05T08:42:54.223Z,100925.47
2022-11-05T08:45:22.150Z,100929.22
2022-11-05T08:47:59.727Z,100932.94
2022-11-05T08:50:29.379Z,100927.84
2022-11-05T08:52:57.601Z,100930.69
2022-11-05T08:55:25.674Z,100929.97
2022-11-05T08:57:56.735Z,100935.44
2022-11-05T09:00:25.112Z,100942.69
2022-11-05T09:02:53.021Z,100940.19
2022-11-05T09:05:20.834Z,100937.69
2022-11-05T09:07:50.527Z,100937.88
2022-11-05T09:10:18.430Z,100938.00
2022-11-05T09:12:46.296Z,100944.31
2022-11-05T09:15:14.005Z,100943.53
2022-11-05T09:17:42.047Z,100943.69
2022-11-05T09:20:12.847Z,100947.31
2022-11-05T09:22:43.475Z,100957.16
2022-11-05T09:25:12.865Z,100961.66
2022-11-05T09:27:40.697Z,100973.22
2022-11-05T09:30:10.738Z,100979.44
2022-11-05T09:32:39.606Z,100978.59
2022-11-05T09:35:08.567Z,100984.00
2022-11-05T09:37:37.597Z,100986.69
2022-11-05T09:40:06.632Z,100986.72
2022-11-05T09:42:40.726Z,100992.09
2022-11-05T09:45:14.641Z,100994.75
2022-11-05T09:47:47.565Z,100993.91
2022-11-05T09:50:19.849Z,100995.72
2022-11-05T09:52:47.932Z,101004.56
2022-11-05T09:55:21.809Z,100995.69
2022-11-05T09:57:54.456Z,100999.25
2022-11-05T10:00:22.556Z,101008.13
2022-11-05T10:02:55.560Z,101012.53
2022-11-05T10:05:25.381Z,101009.00
2022-11-05T10:07:59.296Z,101006.34
2022-11-05T10:10:40.857Z,101013.44
2022-11-05T10:13:22.161Z,101015.19
2022-11-05T10:15:59.256Z,101014.34
2022-11-05T10:18:32.326Z,101021.41
2022-11-05T10:21:00.162Z,101020.53
2022-11-05T10:23:29.052Z,101022.28
2022-11-05T10:26:00.478Z,101021.41
2022-11-05T10:28:31.597Z,101025.81
2022-11-05T10:31:01.563Z,101025.81
2022-11-05T10:33:34.501Z,101021.38
2022-11-05T10:36:06.258Z,101022.25
2022-11-05T10:38:34.854Z,101029.34
2022-11-05T10:41:26.286Z,101031.13
2022-11-05T10:44:04.462Z,101042.63
2022-11-05T10:46:41.552Z,101028.44
2022-11-05T10:49:20.317Z,101031.97
2022-11-05T10:51:55.024Z,101034.63
2022-11-05T10:54:26.073Z,101031.06
2022-11-05T10:56:54.190Z,101037.25
2022-11-05T10:59:25.329Z,101031.06
2022-11-05T11:02:02.261Z,101028.41
2022-11-05T11:04:37.495Z,101030.16
2022-11-05T11:07:06.055Z,101030.16
2022-11-05T11:09:36.848Z,101030.13
2022-11-05T11:12:08.472Z,101024.78
2022-11-05T11:14:37.589Z,101037.19
2022-11-05T11:17:26.687Z,101025.69
2022-11-05T11:20:19.875Z,101023.88
2022-11-05T11:23:00.724Z,101030.09
2022-11-05T11:25:29.995Z,101038.06
2022-11-05T11:28:04.181Z,101030.03
2022-11-05T11:30:33.810Z,101034.47
2022-11-05T11:33:15.052Z,101031.81
2022-11-05T11:35:47.557Z,101031.78
2022-11-05T11:38:17.331Z,101025.56
2022-11-05T11:40:46.163Z,101023.75
2022-11-05T11:43:23.690Z,101023.75
2022-11-05T11:45:58.262Z,101037.06
2022-11-05T11:48:30.681Z,101029.94
2022-11-05T11:50:59.876Z,101030.78
2022-11-05T11:53:31.692Z,101022.72
2022-11-05T11:56:06.375Z,101024.50
2022-11-05T11:58:40.649Z,101017.34
2022-11-05T12:01:26.174Z,101012.84
2022-11-05T12:04:01.798Z,101018.22
2022-11-05T12:06:36.437Z,101016.47
2022-11-05T12:09:13.605Z,101013.81
2022-11-05T12:11:48.601Z,101008.41
2022-11-05T12:14:26.906Z,101017.19
2022-11-05T12:17:26.981Z,101009.22
2022-11-05T12:20:17.821Z,101019.06
2022-11-05T12:23:13.198Z,101029.63
2022-11-05T12:25:48.589Z,101020.75
2022-11-05T12:28:30.814Z,101020.56
2022-11-05T12:31:10.924Z,101015.81
2022-11-05T12:33:48.052Z,101025.28
2022-11-05T12:36:26.941Z,101027.69
2022-11-05T12:39:14.642Z,101013.16
2022-11-05T12:41:48.929Z,101018.25
2022-11-05T12:44:39.426Z,101014.63
2022-11-05T12:47:24.056Z,101020.31
2022-11-05T12:50:03.454Z,101018.69
2022-11-05T12:52:52.278Z,101011.59
2022-11-05T12:55:22.949Z,101017.84
2022-11-05T12:57:53.987Z,101012.22
2022-11-05T13:00:24.121Z,101012.94
2022-11-05T13:02:57.407Z,101015.44
2022-11-05T13:05:35.287Z,101018.03
2022-11-05T13:08:07.439Z,101022.28
2022-11-05T13:10:40.615Z,101014.97
2022-11-05T13:13:16.506Z,101010.38
2022-11-05T13:15:51.917Z,101005.72
2022-11-05T13:18:25.468Z,101013.63
2022-11-05T13:20:57.510Z,101019.75
2022-11-05T13:23:32.824Z,101024.03
2022-11-05T13:26:06.287Z,101025.09
2022-11-05T13:28:40.557Z,101029.69
2022-11-05T13:31:14.593Z,101020.88
2022-11-05T13:33:45.650Z,101028.09
2022-11-05T13:36:37.173Z,101025.59
2022-11-05T13:39:14.741Z,101019.69
2022-11-05T13:42:03.737Z,101026.13
2022-11-05T13:44:52.848Z,101024.41
2022-11-05T13:47:50.649Z,101025.34
2022-11-05T13:50:32.665Z,101020.13
2022-11-05T13:53:23.746Z,101024.72
2022-11-05T13:56:00.425Z,101023.00
2022-11-05T13:59:06.025Z,101025.72
2022-11-05T14:01:45.970Z,101020.56
2022-11-05T14:04:29.647Z,101027.03
2022-11-05T14:07:08.394Z,101028.97
2022-11-05T14:09:38.548Z,101030.88
2022-11-05T14:12:17.503Z,101033.63
2022-11-05T14:14:48.693Z,101038.25
2022-11-05T14:17:26.841Z,101027.66
2022-11-05T14:20:11.026Z,101025.09
2022-11-05T14:22:42.368Z,101025.16
2022-11-05T14:25:56.477Z,101027.06
2022-11-05T14:28:44.538Z,101031.56
2022-11-05T14:32:13.395Z,101037.84
2022-11-05T14:34:49.393Z,101025.47
2022-11-05T14:37:29.946Z,101030.88
2022-11-05T14:40:02.749Z,101029.16
2022-11-05T14:42:32.327Z,101023.84
2022-11-05T14:45:27.020Z,101034.53
2022-11-05T14:47:57.658Z,101030.16
2022-11-05T14:50:34.945Z,101035.47
2022-11-05T14:53:11.345Z,101033.72
2022-11-05T14:55:42.582Z,101039.03
2022-11-05T14:58:32.202Z,101033.75
2022-11-05T15:01:03.233Z,101046.16
2022-11-05T15:04:02.258Z,101047.06
2022-11-05T15:06:33.579Z,101055.09
2022-11-05T15:09:35.313Z,101049.75
2022-11-05T15:12:15.400Z,101049.78
2022-11-05T15:14:56.105Z,101045.31
2022-11-05T15:17:30.299Z,101051.53
2022-11-05T15:20:07.925Z,101058.63
2022-11-05T15:22:39.310Z,101060.38
2022-11-05T15:25:17.840Z,101072.75
2022-11-05T15:28:05.585Z,101068.34
2022-11-05T15:30:33.843Z,101064.75
2022-11-05T15:33:20.312Z,101067.41
2022-11-05T15:35:48.330Z,101066.50
2022-11-05T15:38:27.822Z,101067.34
2022-11-05T15:41:03.644Z,101069.97
2022-11-05T15:43:31.633Z,101061.91
2022-11-05T15:46:04.456Z,101061.03
2022-11-05T15:48:34.682Z,101068.94
2022-11-05T15:51:02.959Z,101073.28
2022-11-05T15:56:50.295Z,101076.72
2022-11-05T15:59:20.733Z,101069.53
2022-11-05T16:01:51.076Z,101074.75
2022-11-05T16:04:22.868Z,101084.38
2022-11-05T16:06:53.703Z,101087.84
2022-11-05T16:09:27.242Z,101084.22
2022-11-05T16:12:13.162Z,101087.66
2022-11-05T16:14:41.755Z,101084.88
2022-11-05T16:17:20.513Z,101083.94
2022-11-05T16:19:50.781Z,101092.69
2022-11-05T16:22:19.155Z,101096.09
2022-11-05T16:24:48.047Z,101086.25
2022-11-05T16:27:19.727Z,101092.34
2022-11-05T16:29:51.320Z,101089.56
2022-11-05T16:32:29.852Z,101093.88
2022-11-05T16:35:02.143Z,101094.66
2022-11-05T16:37:37.687Z,101093.69
2022-11-05T16:40:14.360Z,101097.94
2022-11-05T16:42:43.381Z,101101.38
2022-11-05T16:45:14.864Z,101107.44
2022-11-05T16:47:44.282Z,101105.56
2022-11-05T16:50:24.099Z,101104.56
2022-11-05T16:52:52.229Z,101115.94
2022-11-05T16:55:21.031Z,101113.13
2022-11-05T16:57:52.229Z,101117.47
2022-11-05T17:00:22.486Z,101109.41
2022-11-05T17:02:51.519Z,101118.13
2022-11-05T17:05:24.581Z,101119.75
2022-11-05T17:07:52.779Z,101114.34
2022-11-05T17:10:22.055Z,101127.50
2022-11-05T17:12:51.273Z,101128.28
2022-11-05T17:15:22.168Z,101120.31
2022-11-05T17:17:50.642Z,101116.72
2022-11-05T17:20:28.402Z,101123.72
2022-11-05T17:22:57.780Z,101120.16
2022-11-05T17:25:26.066Z,101120.03
2022-11-05T17:27:54.229Z,101124.34
2022-11-05T17:30:22.551Z,101128.63
2022-11-05T17:32:50.648Z,101130.19
2022-11-05T17:35:18.917Z,101129.22
2022-11-05T17:37:48.443Z,101128.25
2022-11-05T17:40:18.289Z,101126.38
2022-11-05T17:42:46.853Z,101128.91
2022-11-05T17:45:15.439Z,101127.09
2022-11-05T17:47:43.910Z,101125.25
2022-11-05T17:50:14.190Z,101128.75
2022-11-05T17:52:42.150Z,101144.47
2022-11-05T17:55:16.699Z,101143.53
2022-11-05T17:57:46.427Z,101143.41
2022-11-05T18:00:16.682Z,101129.19
2022-11-05T18:02:46.117Z,101128.22
2022-11-05T18:05:14.521Z,101131.66
2022-11-05T18:07:42.683Z,101136.84
2022-11-05T18:10:11.983Z,101135.88
2022-11-05T18:12:41.007Z,101134.94
2022-11-05T18:15:10.420Z,101140.19
2022-11-05T18:17:38.315Z,101148.97
2022-11-05T18:20:12.845Z,101141.81
2022-11-05T18:22:44.325Z,101147.94
2022-11-05T18:25:14.226Z,101149.63
2022-11-05T18:27:42.631Z,101155.63
2022-11-05T18:30:14.138Z,101156.41
2022-11-05T18:32:42.166Z,101139.59
2022-11-05T18:35:10.781Z,101154.47
2022-11-05T18:37:40.105Z,101143.78
2022-11-05T18:40:09.731Z,101143.72
2022-11-05T18:42:39.339Z,101134.84
2022-11-05T18:45:08.426Z,101134.69
2022-11-05T18:47:36.385Z,101137.19
2022-11-05T18:50:05.663Z,101137.91
2022-11-05T18:52:33.791Z,101136.94
2022-11-05T18:55:01.714Z,101135.94
2022-11-05T18:57:32.489Z,101130.63
2022-11-05T19:00:01.740Z,101134.94
2022-11-05T19:02:29.737Z,101138.41
2022-11-05T19:05:27.475Z,101141.88
2022-11-05T19:07:45.639Z,101145.44
2022-11-05T19:10:13.589Z,101138.34
2022-11-05T19:12:41.605Z,101141.00
2022-11-05T19:15:11.543Z,101143.66
2022-11-05T19:17:39.390Z,101136.56
2022-11-05T19:20:09.294Z,101143.47
2022-11-05T19:22:37.398Z,101146.91
2022-11-05T19:25:06.013Z,101145.91
2022-11-05T19:27:36.423Z,101145.81
2022-11-05T19:30:04.779Z,101143.06
2022-11-05T19:32:33.958Z,101146.53
2022-11-05T19:35:01.822Z,101137.75
2022-11-05T19:37:29.677Z,101136.78
2022-11-05T19:39:57.768Z,101147.34
2022-11-05T19:42:25.608Z,101144.72
2022-11-05T19:44:53.439Z,101148.22
2022-11-05T19:47:21.375Z,101147.31
2022-11-05T19:49:50.565Z,101147.25
2022-11-05T19:52:18.447Z,101148.97
2022-11-05T19:54:46.600Z,101143.59
2022-11-05T19:57:14.516Z,101145.28
2022-11-05T19:59:42.442Z,101149.63
2022-11-05T20:02:15.980Z,101140.84
2022-11-05T20:04:44.440Z,101139.03
2022-11-05T20:07:13.670Z,101143.38
2022-11-05T20:09:41.536Z,101143.34
2022-11-05T20:12:09.365Z,101138.94
2022-11-05T20:14:37.302Z,101137.16
2022-11-05T20:17:05.162Z,101135.41
2022-11-05T20:19:33.624Z,101143.28
2022-11-05T20:22:02.035Z,101143.25
2022-11-05T20:24:31.596Z,101151.16
2022-11-05T20:26:59.455Z,101145.00
2022-11-05T20:29:34.768Z,101148.50
2022-11-05T20:32:04.490Z,101146.75
2022-11-05T20:34:34.037Z,101137.94
2022-11-05T20:37:01.960Z,101151.16
2022-11-05T20:39:31.656Z,101151.16
2022-11-05T20:42:00.526Z,101157.31
2022-11-05T20:44:29.046Z,101154.69
2022-11-05T20:46:57.043Z,101159.03
2022-11-05T20:49:25.903Z,101167.81
2022-11-05T20:51:54.151Z,101160.69
2022-11-05T20:54:22.233Z,101160.66
2022-11-05T20:56:51.480Z,101160.59
2022-11-05T20:59:19.493Z,101157.97
2022-11-05T21:01:47.380Z,101155.34
2022-11-05T21:04:15.275Z,101162.38
2022-11-05T21:06:42.999Z,101169.38
2022-11-05T21:09:10.745Z,101171.13
2022-11-05T21:11:52.397Z,101173.75
2022-11-05T21:14:21.794Z,101166.78
2022-11-05T21:16:49.658Z,101167.59
2022-11-05T21:19:17.454Z,101168.44
2022-11-05T21:21:45.200Z,101166.66
2022-11-05T21:24:12.922Z,101169.25
2022-11-05T21:26:40.764Z,101159.53
2022-11-05T21:29:08.723Z,101164.78
2022-11-05T21:31:38.476Z,101161.19
2022-11-05T21:34:06.313Z,101172.66
2022-11-05T21:36:34.076Z,101163.00
2022-11-05T21:39:01.888Z,101161.25
2022-11-05T21:41:29.662Z,101169.16
2022-11-05T21:43:57.451Z,101159.53
2022-11-05T21:46:25.426Z,101157.78
2022-11-05T21:48:54.574Z,101151.69
2022-11-05T21:51:39.769Z,101158.72
2022-11-05T21:54:25.282Z,101151.69
2022-11-05T21:57:11.133Z,101147.34
2022-11-05T21:59:52.318Z,101145.59
2022-11-05T22:02:23.207Z,101142.97
2022-11-05T22:04:54.595Z,101148.22
2022-11-05T22:07:26.299Z,101145.63
2022-11-05T22:09:54.541Z,101143.84
2022-11-05T22:12:23.252Z,101143.88
2022-11-05T22:14:51.161Z,101143.88
2022-11-05T22:17:19.200Z,101138.63
2022-11-05T22:19:47.168Z,101131.66
2022-11-05T22:22:16.289Z,101136.91
2022-11-05T22:24:44.629Z,101133.44
2022-11-05T22:27:17.323Z,101134.38
2022-11-05T22:29:46.113Z,101137.06
2022-11-05T22:32:13.944Z,101145.03
2022-11-05T22:34:41.828Z,101138.03
2022-11-05T22:37:10.102Z,101149.53
2022-11-05T22:39:39.234Z,101146.00
2022-11-05T22:42:08.739Z,101143.44
2022-11-05T22:44:37.908Z,101147.88
2022-11-05T22:47:06.471Z,101138.25
2022-11-05T22:49:34.529Z,101137.38
2022-11-05T22:52:02.527Z,101138.31
2022-11-05T22:54:35.081Z,101135.72
2022-11-05T22:57:07.470Z,101129.56
2022-11-05T22:59:35.241Z,101128.75
2022-11-05T23:02:08.425Z,101131.38
2022-11-05T23:04:37.857Z,101134.94
2022-11-05T23:07:27.287Z,101135.84
2022-11-05T23:10:14.203Z,101135.84
2022-11-05T23:12:44.589Z,101144.63
2022-11-05T23:15:34.402Z,101127.97
2022-11-05T23:18:20.149Z,101127.91
2022-11-05T23:21:05.233Z,101127.03
2022-11-05T23:23:50.825Z,101128.75
2022-11-05T23:26:35.923Z,101137.53
2022-11-05T23:29:05.317Z,101129.63
2022-11-05T23:31:50.609Z,101136.69
2022-11-05T23:34:18.454Z,101129.72
2022-11-05T23:37:03.659Z,101124.44
2022-11-05T23:39:31.433Z,101118.31
2022-11-05T23:42:19.198Z,101113.03
2022-11-05T23:45:08.311Z,101115.72
2022-11-05T23:47:56.885Z,101113.06
2022-11-05T23:50:25.735Z,101115.75
2022-11-05T23:52:54.054Z,101116.69
2022-11-05T23:55:21.928Z,101117.63
2022-11-05T23:57:50.219Z,101102.72
